Time;durP1;ratioP1;P1;durP2;ratioP2;P2;SDS_P1;SDS_P2;PMS_P1;PMS_P2;Temp;Humidity;BMP_temperature;BMP_pressure;BME280_temperature;BME280_humidity;BME280_pressure;Samples;Min_cycle;Max_cycle;Signal;HPM_P1;HPM_P2
2021/12/09 00:01:28;;;;;;;29.25;16.13;;;0.30;99.90;;;;;;5013603;28;20033;-76
2021/12/09 00:04:00;;;;;;;29.02;15.95;;;0.30;99.90;;;;;;4997017;28;20037;-76
2021/12/09 00:06:28;;;;;;;30.83;16.25;;;0.30;99.90;;;;;;5033646;28;20171;-76
2021/12/09 00:08:56;;;;;;;35.80;17.65;;;0.40;99.90;;;;;;5036132;28;20044;-76
2021/12/09 00:11:22;;;;;;;28.40;17.25;;;0.30;99.90;;;;;;5032976;28;20116;-75
2021/12/09 00:13:48;;;;;;;23.65;16.52;;;0.40;99.90;;;;;;5032453;28;20505;-76
2021/12/09 00:16:14;;;;;;;27.92;16.83;;;0.30;99.90;;;;;;5017257;28;20124;-76
2021/12/09 00:18:39;;;;;;;29.10;17.10;;;0.30;99.90;;;;;;5000940;28;20164;-77
2021/12/09 00:21:05;;;;;;;27.10;16.13;;;0.30;99.90;;;;;;5032402;28;20044;-75
2021/12/09 00:23:31;;;;;;;27.95;16.60;;;0.30;99.90;;;;;;5014095;28;20116;-76
2021/12/09 00:25:56;;;;;;;23.23;15.73;;;0.30;99.90;;;;;;5020969;28;20043;-76
2021/12/09 00:28:22;;;;;;;36.22;17.40;;;0.30;99.90;;;;;;5017182;28;20119;-76
2021/12/09 00:30:48;;;;;;;26.65;17.90;;;0.30;99.90;;;;;;5017397;28;20129;-76
2021/12/09 00:33:16;;;;;;;26.15;16.23;;;0.30;99.90;;;;;;5019759;28;20047;-76
2021/12/09 00:35:49;;;;;;;31.33;17.30;;;0.30;99.90;;;;;;5032259;28;20053;-76
2021/12/09 00:38:32;;;;;;;28.65;16.83;;;0.30;99.90;;;;;;5028140;28;20062;-76
2021/12/09 00:40:58;;;;;;;28.83;17.02;;;0.30;99.90;;;;;;5041049;28;20041;-76
2021/12/09 00:43:24;;;;;;;27.13;18.05;;;0.20;99.90;;;;;;5000266;28;20037;-76
2021/12/09 00:45:49;;;;;;;29.75;17.75;;;0.20;99.90;;;;;;5028233;28;20501;-76
2021/12/09 00:48:15;;;;;;;26.38;17.60;;;0.20;99.90;;;;;;5020290;28;20036;-76
2021/12/09 00:50:41;;;;;;;29.60;17.88;;;0.20;99.90;;;;;;5020140;28;20440;-76
2021/12/09 00:53:07;;;;;;;28.40;18.30;;;0.20;99.90;;;;;;5018106;28;20037;-76
2021/12/09 00:55:33;;;;;;;30.70;18.75;;;0.20;99.90;;;;;;5003767;28;20072;-76
2021/12/09 00:57:58;;;;;;;33.28;18.65;;;0.20;99.90;;;;;;5016554;28;20481;-76
2021/12/09 01:00:24;;;;;;;33.95;20.10;;;0.30;99.90;;;;;;5037442;28;20036;-76
2021/12/09 01:02:50;;;;;;;31.73;18.55;;;0.30;99.90;;;;;;5033315;28;20037;-76
2021/12/09 01:05:16;;;;;;;32.53;19.95;;;0.30;99.90;;;;;;5032356;28;20163;-76
2021/12/09 01:07:42;;;;;;;29.23;19.48;;;0.30;99.90;;;;;;5016601;28;20083;-76
2021/12/09 01:10:12;;;;;;;30.55;19.92;;;0.30;99.90;;;;;;5016784;28;20041;-76
2021/12/09 01:12:38;;;;;;;37.33;20.58;;;0.30;99.90;;;;;;5045705;28;20074;-76
2021/12/09 01:15:07;;;;;;;34.13;20.15;;;0.30;99.90;;;;;;5025174;28;20052;-76
2021/12/09 01:17:33;;;;;;;30.48;19.85;;;0.30;99.90;;;;;;5000016;28;20096;-76
2021/12/09 01:19:59;;;;;;;30.90;19.73;;;0.30;99.90;;;;;;5022374;28;20036;-76
2021/12/09 01:22:33;;;;;;;29.05;20.15;;;0.30;99.90;;;;;;5013227;28;20093;-76
2021/12/09 01:24:59;;;;;;;32.60;19.73;;;0.30;99.90;;;;;;5017379;28;20041;-76
2021/12/09 01:27:26;;;;;;;29.60;19.20;;;0.20;99.90;;;;;;5049360;28;20037;-76
2021/12/09 01:29:54;;;;;;;29.55;20.20;;;0.20;99.90;;;;;;5033096;28;20050;-76
2021/12/09 01:32:26;;;;;;;34.75;20.55;;;0.20;99.90;;;;;;5015954;28;20124;-76
2021/12/09 01:34:52;;;;;;;36.15;21.38;;;0.20;99.90;;;;;;5042869;28;20040;-76
2021/12/09 01:37:18;;;;;;;30.77;21.15;;;0.20;99.90;;;;;;5016138;28;20044;-77
2021/12/09 01:39:43;;;;;;;34.95;20.23;;;0.20;99.90;;;;;;5049266;28;20029;-76
2021/12/09 01:42:11;;;;;;;34.60;20.90;;;0.20;99.90;;;;;;5017321;28;20458;-76
2021/12/09 01:44:37;;;;;;;30.48;20.27;;;0.20;99.90;;;;;;5019486;28;20044;-76
2021/12/09 01:47:03;;;;;;;29.55;19.67;;;0.10;99.90;;;;;;5032215;28;20045;-76
2021/12/09 01:49:28;;;;;;;34.15;19.65;;;0.10;99.90;;;;;;5020486;28;20045;-76
2021/12/09 01:51:54;;;;;;;43.95;22.35;;;0.10;99.90;;;;;;5026355;28;20038;-76
2021/12/09 01:54:23;;;;;;;30.65;20.85;;;0.10;99.90;;;;;;5015653;28;20443;-76
2021/12/09 01:56:49;;;;;;;35.35;21.80;;;0.10;99.90;;;;;;5015648;28;20053;-76
2021/12/09 01:59:14;;;;;;;36.33;22.08;;;0.10;99.90;;;;;;4999734;28;20038;-76
2021/12/09 02:01:40;;;;;;;32.83;21.27;;;0.10;99.90;;;;;;5045288;28;20087;-77
2021/12/09 02:04:08;;;;;;;35.97;20.55;;;0.20;99.90;;;;;;5015165;28;20055;-76
2021/12/09 02:06:35;;;;;;;34.22;20.80;;;0.10;99.90;;;;;;5015575;28;20041;-76
2021/12/09 02:09:01;;;;;;;34.47;20.83;;;0.10;99.90;;;;;;5022406;28;20045;-76
2021/12/09 02:11:26;;;;;;;34.78;21.67;;;0.10;99.90;;;;;;5031014;28;20044;-76
2021/12/09 02:13:56;;;;;;;40.05;20.83;;;0.10;99.90;;;;;;5032259;28;20037;-76
2021/12/09 02:16:21;;;;;;;29.52;20.58;;;0.10;99.90;;;;;;5038268;28;20124;-76
2021/12/09 02:18:48;;;;;;;33.03;20.27;;;0.00;99.90;;;;;;5054676;28;20123;-76
2021/12/09 02:21:18;;;;;;;34.60;20.73;;;0.00;99.90;;;;;;5051442;28;20052;-76
2021/12/09 02:23:54;;;;;;;33.85;20.67;;;0.00;99.90;;;;;;5016868;28;20037;-76
2021/12/09 02:26:26;;;;;;;33.75;20.52;;;0.00;99.90;;;;;;5015152;28;20038;-76
2021/12/09 02:28:54;;;;;;;32.83;20.73;;;0.00;99.90;;;;;;5025773;28;20040;-75
2021/12/09 02:31:20;;;;;;;37.85;20.83;;;0.00;99.90;;;;;;5033905;28;20037;-75
2021/12/09 02:33:45;;;;;;;33.13;21.30;;;-0.10;99.90;;;;;;5030401;28;20072;-76
2021/12/09 02:36:11;;;;;;;34.83;20.80;;;-0.10;99.90;;;;;;5015228;28;20072;-76
2021/12/09 02:38:43;;;;;;;30.20;20.00;;;-0.10;99.90;;;;;;5014749;28;20037;-76
2021/12/09 02:41:14;;;;;;;29.92;20.40;;;-0.10;99.90;;;;;;4998146;28;20490;-76
2021/12/09 02:43:41;;;;;;;27.83;19.00;;;-0.10;99.90;;;;;;5044817;28;20041;-75
2021/12/09 02:46:07;;;;;;;30.67;20.75;;;-0.20;99.90;;;;;;5037794;28;20052;-76
2021/12/09 02:48:32;;;;;;;31.50;21.10;;;-0.20;99.90;;;;;;5024211;28;20041;-76
2021/12/09 02:51:01;;;;;;;37.20;21.15;;;-0.20;99.90;;;;;;5014820;28;20034;-76
2021/12/09 02:53:26;;;;;;;33.53;21.75;;;-0.20;99.90;;;;;;5032265;28;20041;-76
2021/12/09 02:55:52;;;;;;;32.90;21.70;;;-0.10;99.90;;;;;;5034500;28;20044;-76
2021/12/09 02:58:17;;;;;;;34.70;22.20;;;-0.20;99.90;;;;;;5031912;28;20502;-76
2021/12/09 03:00:56;;;;;;;34.28;21.65;;;-0.10;99.90;;;;;;5026684;28;20044;-76
2021/12/09 03:03:22;;;;;;;39.45;22.52;;;-0.20;99.90;;;;;;5030019;28;20076;-76
2021/12/09 03:05:48;;;;;;;36.20;22.02;;;-0.20;99.90;;;;;;5014447;28;20212;-75
2021/12/09 03:08:22;;;;;;;39.55;23.05;;;-0.20;99.90;;;;;;5039140;28;20044;-76
2021/12/09 03:10:48;;;;;;;32.47;22.52;;;-0.20;99.90;;;;;;5054093;28;20048;-76
2021/12/09 03:13:15;;;;;;;37.42;23.42;;;-0.10;99.90;;;;;;5030871;28;20038;-75
2021/12/09 03:15:41;;;;;;;35.80;22.73;;;-0.10;99.90;;;;;;5014184;28;20041;-76
2021/12/09 03:18:06;;;;;;;36.80;22.65;;;-0.20;99.90;;;;;;5014464;28;20039;-76
2021/12/09 03:20:32;;;;;;;42.15;24.65;;;-0.10;99.90;;;;;;5001660;28;20120;-76
2021/12/09 03:22:57;;;;;;;39.40;22.75;;;-0.20;99.90;;;;;;5034623;28;20035;-76
2021/12/09 03:25:23;;;;;;;37.65;22.83;;;-0.20;99.90;;;;;;5014660;28;20050;-75
2021/12/09 03:27:48;;;;;;;32.60;22.17;;;-0.20;99.90;;;;;;4998342;28;20091;-76
2021/12/09 03:30:17;;;;;;;32.58;22.50;;;-0.20;99.90;;;;;;5013973;28;20045;-76
2021/12/09 03:32:43;;;;;;;36.10;21.63;;;-0.20;99.90;;;;;;5014253;28;20087;-76
2021/12/09 03:35:11;;;;;;;35.92;22.45;;;-0.20;99.90;;;;;;5013947;28;20095;-76
2021/12/09 03:37:37;;;;;;;35.80;21.95;;;-0.20;99.90;;;;;;5036381;28;20389;-76
2021/12/09 03:40:04;;;;;;;38.50;22.60;;;-0.20;99.90;;;;;;5029593;28;20098;-76
2021/12/09 03:42:31;;;;;;;39.58;22.30;;;-0.20;99.90;;;;;;5015678;28;20045;-77
2021/12/09 03:44:58;;;;;;;37.47;22.67;;;-0.20;99.90;;;;;;5034412;28;20045;-76
2021/12/09 03:47:26;;;;;;;36.25;21.83;;;-0.20;99.90;;;;;;5018125;28;20052;-76
2021/12/09 03:49:53;;;;;;;35.83;22.35;;;-0.20;99.90;;;;;;5026517;28;20047;-76
2021/12/09 03:52:19;;;;;;;35.45;22.17;;;-0.30;99.90;;;;;;5039850;28;20041;-75
2021/12/09 03:54:45;;;;;;;41.38;23.23;;;-0.30;99.90;;;;;;5007518;28;20408;-76
2021/12/09 03:57:11;;;;;;;36.90;22.75;;;-0.30;99.90;;;;;;5038140;28;20555;-76
2021/12/09 03:59:39;;;;;;;33.50;22.83;;;-0.30;99.90;;;;;;5039336;28;20048;-76
2021/12/09 04:02:05;;;;;;;37.03;22.98;;;-0.30;99.90;;;;;;5041931;28;20045;-76
2021/12/09 04:04:31;;;;;;;39.67;22.98;;;-0.30;99.90;;;;;;5001522;28;20448;-76
2021/12/09 04:06:58;;;;;;;36.67;23.10;;;-0.20;99.90;;;;;;5019775;28;20033;-75
2021/12/09 04:09:25;;;;;;;39.10;22.40;;;-0.20;99.90;;;;;;5001555;28;20045;-76
2021/12/09 04:11:52;;;;;;;35.25;23.90;;;-0.20;99.90;;;;;;5009650;28;20040;-76
2021/12/09 04:14:19;;;;;;;36.80;23.92;;;-0.30;99.90;;;;;;5047582;28;20068;-76
2021/12/09 04:16:46;;;;;;;38.42;24.13;;;-0.20;99.90;;;;;;5035403;28;20087;-76
2021/12/09 04:19:13;;;;;;;37.90;23.08;;;-0.30;99.90;;;;;;5028554;28;20037;-76
2021/12/09 04:21:40;;;;;;;41.13;23.85;;;-0.30;99.90;;;;;;5024661;28;20492;-76
2021/12/09 04:24:10;;;;;;;38.20;23.23;;;-0.30;99.90;;;;;;5036956;28;20094;-76
2021/12/09 04:26:37;;;;;;;35.78;23.38;;;-0.30;99.90;;;;;;5051775;28;20036;-76
2021/12/09 04:29:04;;;;;;;38.58;24.35;;;-0.30;99.90;;;;;;5040648;28;20388;-75
2021/12/09 04:31:30;;;;;;;37.20;24.23;;;-0.30;99.90;;;;;;5032832;28;20044;-76
2021/12/09 04:33:56;;;;;;;44.80;25.23;;;-0.30;99.90;;;;;;5036837;28;20037;-75
2021/12/09 04:36:23;;;;;;;43.10;25.00;;;-0.30;99.90;;;;;;5037454;28;20071;-76
2021/12/09 04:38:49;;;;;;;39.58;24.52;;;-0.30;99.90;;;;;;5029759;28;20040;-76
2021/12/09 04:41:16;;;;;;;41.20;23.65;;;-0.30;99.90;;;;;;5048600;28;20044;-76
2021/12/09 04:43:43;;;;;;;38.20;23.27;;;-0.30;99.90;;;;;;5016800;28;20396;-75
2021/12/09 04:46:10;;;;;;;44.15;23.13;;;-0.40;99.90;;;;;;5000687;28;20073;-75
2021/12/09 04:48:36;;;;;;;40.08;23.70;;;-0.40;99.90;;;;;;5011227;28;20408;-76
2021/12/09 04:51:02;;;;;;;38.00;24.08;;;-0.40;99.90;;;;;;5035658;28;20124;-76
2021/12/09 04:53:28;;;;;;;43.22;24.02;;;-0.30;99.90;;;;;;5036324;28;20068;-76
2021/12/09 04:55:54;;;;;;;38.42;23.30;;;-0.40;99.90;;;;;;5053840;28;20033;-75
2021/12/09 04:58:20;;;;;;;40.72;22.98;;;-0.40;99.90;;;;;;5032351;28;20037;-75
2021/12/09 05:00:48;;;;;;;38.63;24.50;;;-0.40;99.90;;;;;;5016506;28;20045;-75
2021/12/09 05:03:14;;;;;;;40.58;24.17;;;-0.40;99.90;;;;;;5001120;28;20040;-76
2021/12/09 05:05:46;;;;;;;38.58;24.05;;;-0.40;99.90;;;;;;5046819;28;20052;-75
2021/12/09 05:08:16;;;;;;;43.40;24.73;;;-0.40;99.90;;;;;;5056915;28;20500;-76
2021/12/09 05:13:22;;;;;;;42.90;24.85;;;-0.40;99.90;;;;;;5016269;28;20045;-76
2021/12/09 05:15:48;;;;;;;37.20;23.23;;;-0.40;99.90;;;;;;5000467;28;20045;-76
2021/12/09 05:18:15;;;;;;;42.33;24.65;;;-0.40;99.90;;;;;;5030799;28;20047;-75
2021/12/09 05:20:42;;;;;;;39.58;23.98;;;-0.40;99.90;;;;;;5039533;28;20504;-75
2021/12/09 05:23:08;;;;;;;40.08;24.48;;;-0.40;99.90;;;;;;5032915;28;20044;-75
2021/12/09 05:25:33;;;;;;;40.58;24.50;;;-0.40;99.90;;;;;;5032760;28;20512;-75
2021/12/09 05:27:59;;;;;;;40.80;25.02;;;-0.40;99.90;;;;;;5022220;28;20036;-75
2021/12/09 05:30:37;;;;;;;37.63;24.25;;;-0.40;99.90;;;;;;5040545;28;20034;-76
2021/12/09 05:33:04;;;;;;;40.17;24.52;;;-0.40;99.90;;;;;;5032968;28;20120;-75
2021/12/09 05:35:30;;;;;;;40.40;25.08;;;-0.40;99.90;;;;;;5035911;28;20048;-75
2021/12/09 05:37:55;;;;;;;43.38;24.60;;;-0.40;99.90;;;;;;5033400;28;20041;-75
2021/12/09 05:40:21;;;;;;;42.05;24.58;;;-0.40;99.90;;;;;;5016037;28;20056;-75
2021/12/09 05:42:47;;;;;;;42.10;23.70;;;-0.40;99.90;;;;;;5024744;28;20072;-76
2021/12/09 05:45:13;;;;;;;41.13;23.65;;;-0.50;99.90;;;;;;5061820;23;20048;-76
2021/12/09 05:47:45;;;;;;;50.70;23.98;;;-0.50;99.90;;;;;;5018968;28;20040;-77
2021/12/09 05:50:11;;;;;;;41.28;23.30;;;-0.50;99.90;;;;;;5018270;28;20044;-77
2021/12/09 05:52:39;;;;;;;42.67;25.27;;;-0.50;99.90;;;;;;5018314;28;20041;-77
2021/12/09 05:55:05;;;;;;;46.63;25.45;;;-0.50;99.90;;;;;;5031996;28;20062;-77
2021/12/09 05:57:31;;;;;;;43.88;24.92;;;-0.40;99.90;;;;;;5038282;28;20043;-77
2021/12/09 05:59:57;;;;;;;39.78;23.73;;;-0.40;99.90;;;;;;5037343;28;20127;-77
2021/12/09 06:02:23;;;;;;;41.05;23.48;;;-0.50;99.90;;;;;;5051254;28;20149;-76
2021/12/09 06:04:48;;;;;;;48.72;25.05;;;-0.50;99.90;;;;;;5035710;28;20480;-77
2021/12/09 06:07:14;;;;;;;45.92;25.17;;;-0.40;99.90;;;;;;5017864;28;20394;-74
2021/12/09 06:09:40;;;;;;;41.90;24.15;;;-0.40;99.90;;;;;;5018692;28;20043;-74
2021/12/09 06:12:07;;;;;;;44.90;25.50;;;-0.40;99.90;;;;;;5032241;28;20037;-75
2021/12/09 06:14:33;;;;;;;44.55;23.65;;;-0.40;99.90;;;;;;5037700;28;20123;-76
2021/12/09 06:17:00;;;;;;;39.55;24.30;;;-0.40;99.90;;;;;;5023106;28;20489;-77
2021/12/09 06:19:31;;;;;;;38.33;23.25;;;-0.40;99.90;;;;;;5023726;28;20500;-76
2021/12/09 06:21:59;;;;;;;43.50;23.83;;;-0.40;99.90;;;;;;5023411;28;20102;-76
2021/12/09 06:24:25;;;;;;;44.30;24.85;;;-0.40;99.90;;;;;;5037096;28;20043;-76
2021/12/09 06:26:51;;;;;;;38.53;23.30;;;-0.40;99.90;;;;;;5054460;28;20036;-76
2021/12/09 06:29:17;;;;;;;42.00;24.00;;;-0.50;99.90;;;;;;5054476;28;20131;-76
2021/12/09 06:31:47;;;;;;;46.20;23.98;;;-0.40;99.90;;;;;;5043171;28;20398;-77
2021/12/09 06:34:19;;;;;;;36.97;23.48;;;-0.40;99.90;;;;;;5017887;28;20450;-76
2021/12/09 06:36:44;;;;;;;43.83;23.88;;;-0.50;99.90;;;;;;5018023;28;20037;-74
2021/12/09 06:39:12;;;;;;;42.88;23.83;;;-0.50;99.90;;;;;;5024648;28;20033;-74
2021/12/09 06:41:38;;;;;;;42.15;24.25;;;-0.50;99.90;;;;;;5037280;28;20173;-74
2021/12/09 06:44:05;;;;;;;43.50;23.58;;;-0.50;99.90;;;;;;5036973;28;20043;-74
2021/12/09 06:46:30;;;;;;;41.17;24.80;;;-0.50;99.90;;;;;;5037404;28;20522;-74
2021/12/09 06:48:57;;;;;;;48.13;23.85;;;-0.50;99.90;;;;;;5037515;28;20083;-74
2021/12/09 06:51:23;;;;;;;41.42;24.48;;;-0.50;99.90;;;;;;5021145;28;20044;-74
2021/12/09 06:53:49;;;;;;;47.08;24.80;;;-0.50;99.90;;;;;;5036776;28;20383;-73
2021/12/09 06:56:17;;;;;;;45.95;23.95;;;-0.50;99.90;;;;;;5036847;28;20028;-74
2021/12/09 06:58:43;;;;;;;44.95;23.27;;;-0.50;99.90;;;;;;5037246;28;20431;-75
2021/12/09 07:01:17;;;;;;;40.75;23.27;;;-0.50;99.90;;;;;;5036283;28;20110;-79
2021/12/09 07:19:30;;;;;;;51.25;24.83;;;-0.40;99.90;;;;;;5064011;28;20527;-78
2021/12/09 07:22:47;;;;;;;45.72;23.90;;;-0.40;99.90;;;;;;5031347;28;20408;-77
2021/12/09 07:25:43;;;;;;;42.05;23.90;;;-0.30;99.90;;;;;;5145494;22;20728;-78
2021/12/09 07:32:59;;;;;;;;;;;;;;;;;;;;;
2021/12/09 07:54:48;;;;;;;44.38;23.23;;;-0.10;99.90;;;;;;5073517;28;20055;-79
2021/12/09 07:57:31;;;;;;;45.63;23.77;;;-0.10;99.90;;;;;;4960809;22;20082;-81
2021/12/09 07:59:56;;;;;;;43.22;22.48;;;-0.10;99.90;;;;;;5052990;28;20052;-80
2021/12/09 08:02:22;;;;;;;44.13;22.80;;;0.00;99.90;;;;;;5053334;28;20041;-80
2021/12/09 08:04:47;;;;;;;41.28;22.33;;;0.00;99.90;;;;;;5053341;28;20508;-80
2021/12/09 08:07:13;;;;;;;46.50;23.55;;;0.00;99.90;;;;;;5053756;28;20079;-80
2021/12/09 08:09:38;;;;;;;45.03;23.90;;;0.00;99.90;;;;;;5036751;28;20174;-80
2021/12/09 08:12:04;;;;;;;40.95;22.70;;;0.00;99.90;;;;;;5070034;28;20040;-80
2021/12/09 08:14:30;;;;;;;45.80;21.70;;;0.00;99.90;;;;;;5036671;28;20044;-80
2021/12/09 08:17:23;;;;;;;38.70;22.55;;;0.10;99.90;;;;;;5070151;28;20119;-80
2021/12/09 08:19:49;;;;;;;44.45;22.67;;;0.10;99.90;;;;;;5053388;28;20032;-81
2021/12/09 08:22:15;;;;;;;46.15;22.58;;;0.10;99.90;;;;;;5053567;28;20051;-80
2021/12/09 08:24:41;;;;;;;39.15;20.70;;;0.10;99.90;;;;;;5053327;28;20044;-80
2021/12/09 08:27:07;;;;;;;42.10;21.92;;;0.10;99.90;;;;;;5053204;28;20439;-80
2021/12/09 08:29:32;;;;;;;39.80;21.75;;;0.10;99.90;;;;;;5071848;28;20458;-80
2021/12/09 08:31:58;;;;;;;38.72;21.45;;;0.10;99.90;;;;;;5057056;28;20043;-81
2021/12/09 08:34:24;;;;;;;35.92;21.77;;;0.10;99.90;;;;;;5073322;28;20051;-80
2021/12/09 08:36:49;;;;;;;37.55;22.17;;;0.10;99.90;;;;;;5056708;28;20064;-81
2021/12/09 08:39:15;;;;;;;41.53;22.00;;;0.10;99.90;;;;;;5073424;28;20043;-80
2021/12/09 08:41:42;;;;;;;40.67;21.17;;;0.10;99.90;;;;;;5057049;28;20052;-80
2021/12/09 08:44:08;;;;;;;38.05;21.30;;;0.10;99.90;;;;;;5039923;28;20045;-80
2021/12/09 08:46:34;;;;;;;36.80;21.10;;;0.20;99.90;;;;;;5056796;28;20066;-80
2021/12/09 08:48:59;;;;;;;42.70;21.73;;;0.20;99.90;;;;;;5040099;28;20047;-81
2021/12/09 08:51:25;;;;;;;35.60;20.30;;;0.20;99.90;;;;;;5040011;28;20036;-81
2021/12/09 08:53:52;;;;;;;42.22;22.20;;;0.20;99.90;;;;;;5056366;28;20492;-80
2021/12/09 08:56:17;;;;;;;35.35;21.42;;;0.30;99.90;;;;;;5056450;28;20083;-80
2021/12/09 08:58:43;;;;;;;42.97;21.02;;;0.30;99.90;;;;;;5056313;28;20066;-80
2021/12/09 09:01:12;;;;;;;37.83;20.80;;;0.40;99.90;;;;;;5056252;28;20480;-81
2021/12/09 09:03:37;;;;;;;34.40;20.98;;;0.40;99.90;;;;;;5056181;28;20119;-80
2021/12/09 09:06:03;;;;;;;38.30;21.08;;;0.40;99.90;;;;;;5056242;28;20127;-80
2021/12/09 09:08:29;;;;;;;41.03;21.13;;;0.40;99.90;;;;;;5056502;28;20515;-80
2021/12/09 09:10:54;;;;;;;39.85;21.15;;;0.40;99.90;;;;;;5039553;28;20036;-80
2021/12/09 09:13:20;;;;;;;39.67;20.02;;;0.50;99.90;;;;;;5055700;28;20450;-80
2021/12/09 09:15:48;;;;;;;39.78;20.45;;;0.50;99.90;;;;;;5073185;28;20405;-80
2021/12/09 09:18:15;;;;;;;33.70;20.10;;;0.50;99.90;;;;;;5039398;28;20052;-80
2021/12/09 09:20:41;;;;;;;34.17;19.58;;;0.60;99.90;;;;;;5056581;28;20028;-80
2021/12/09 09:23:10;;;;;;;31.48;20.10;;;0.60;99.90;;;;;;5056372;28;20036;-80
2021/12/09 09:25:36;;;;;;;37.58;20.45;;;0.60;99.90;;;;;;5039726;28;20477;-80
2021/12/09 09:28:03;;;;;;;32.08;19.08;;;0.70;99.90;;;;;;5056182;28;20033;-80
2021/12/09 09:30:35;;;;;;;38.55;19.88;;;0.70;99.90;;;;;;5056202;28;20127;-80
2021/12/09 09:33:05;;;;;;;31.48;18.80;;;0.70;99.90;;;;;;5055984;28;20036;-80
2021/12/09 09:35:30;;;;;;;31.02;18.88;;;0.80;99.90;;;;;;5072777;28;20033;-80
2021/12/09 09:37:56;;;;;;;29.85;18.70;;;0.90;99.90;;;;;;5055865;28;20036;-80
2021/12/09 09:40:27;;;;;;;29.15;18.52;;;0.90;99.90;;;;;;5071699;28;20411;-79
2021/12/09 09:43:03;;;;;;;32.40;19.17;;;1.00;99.90;;;;;;5056086;28;20266;-80
2021/12/09 09:45:31;;;;;;;31.17;18.00;;;1.00;99.90;;;;;;5055917;28;20504;-80
2021/12/09 09:47:57;;;;;;;31.17;17.80;;;1.10;99.90;;;;;;5039041;28;20565;-79
2021/12/09 09:50:23;;;;;;;29.58;17.27;;;1.10;99.90;;;;;;5039114;28;20036;-80
2021/12/09 09:52:49;;;;;;;30.65;17.15;;;1.10;99.90;;;;;;5057402;28;20064;-80
2021/12/09 09:55:20;;;;;;;27.58;16.83;;;1.20;99.90;;;;;;5056995;28;20051;-79
2021/12/09 09:57:47;;;;;;;25.27;16.88;;;1.20;99.90;;;;;;5057217;28;20387;-79
2021/12/09 10:00:14;;;;;;;32.75;16.52;;;1.30;99.90;;;;;;5039944;28;20151;-79
2021/12/09 10:02:40;;;;;;;33.60;17.33;;;1.40;99.90;;;;;;5038623;28;20036;-80
2021/12/09 10:05:08;;;;;;;26.42;16.05;;;1.60;99.90;;;;;;5055359;28;20166;-80
2021/12/09 10:07:34;;;;;;;23.00;15.43;;;1.60;99.90;;;;;;5038525;28;20041;-80
2021/12/09 10:10:01;;;;;;;24.30;14.82;;;1.60;99.90;;;;;;5055251;28;20036;-80
2021/12/09 10:12:27;;;;;;;22.77;14.48;;;1.70;99.90;;;;;;5055078;28;20044;-82
2021/12/09 10:14:54;;;;;;;29.15;15.35;;;1.70;99.90;;;;;;5038261;28;20047;-81
2021/12/09 10:17:26;;;;;;;21.58;15.25;;;1.70;99.90;;;;;;5054930;28;20568;-80
2021/12/09 10:20:04;;;;;;;24.98;13.93;;;1.80;99.90;;;;;;5038221;28;20037;-80
2021/12/09 10:22:34;;;;;;;25.40;14.38;;;1.80;99.90;;;;;;5038417;28;20093;-80
2021/12/09 10:25:02;;;;;;;27.30;14.88;;;1.90;99.90;;;;;;5038272;28;20036;-80
2021/12/09 10:27:34;;;;;;;23.60;14.63;;;1.90;99.90;;;;;;5054839;28;20047;-80
2021/12/09 10:30:15;;;;;;;25.70;14.10;;;2.00;99.90;;;;;;5038332;28;20045;-80
2021/12/09 10:32:42;;;;;;;25.33;13.80;;;2.00;99.90;;;;;;5054457;28;20119;-80
2021/12/09 10:35:12;;;;;;;26.85;14.95;;;2.10;99.90;;;;;;5054839;28;20051;-80
2021/12/09 10:37:40;;;;;;;22.00;14.18;;;2.20;99.90;;;;;;5037809;28;20590;-80
2021/12/09 10:40:11;;;;;;;25.48;13.55;;;2.20;99.90;;;;;;5037788;28;20052;-81
2021/12/09 10:42:48;;;;;;;25.65;15.00;;;2.30;99.90;;;;;;5071132;28;20048;-80
2021/12/09 10:45:13;;;;;;;21.88;14.85;;;2.40;99.90;;;;;;5054814;28;20097;-80
2021/12/09 10:47:55;;;;;;;23.60;14.88;;;2.50;99.90;;;;;;5037980;28;20036;-80
2021/12/09 10:55:48;;;;;;;26.02;15.88;;;2.70;99.90;;;;;;5054638;28;20076;-80
2021/12/09 10:58:16;;;;;;;25.65;15.70;;;2.70;99.90;;;;;;5070554;28;20036;-80
2021/12/09 11:00:51;;;;;;;31.55;16.50;;;2.80;99.90;;;;;;5037753;28;20677;-80
2021/12/09 11:03:20;;;;;;;29.10;15.15;;;2.80;99.90;;;;;;5037407;28;20124;-80
2021/12/09 11:06:01;;;;;;;28.58;15.13;;;2.80;99.90;;;;;;5054028;28;20091;-80
2021/12/09 11:08:31;;;;;;;23.98;16.77;;;2.80;99.90;;;;;;5054198;28;20062;-80
2021/12/09 11:11:12;;;;;;;30.55;18.17;;;2.80;99.90;;;;;;5070744;28;20526;-80
2021/12/09 11:13:43;;;;;;;26.52;17.73;;;2.90;99.90;;;;;;5053685;28;20151;-80
2021/12/09 11:16:09;;;;;;;27.05;17.92;;;2.90;99.90;;;;;;5037369;28;20044;-80
2021/12/09 11:18:44;;;;;;;30.25;17.58;;;2.90;99.90;;;;;;5037211;28;20036;-80
2021/12/09 11:21:21;;;;;;;29.75;17.92;;;2.90;99.90;;;;;;5053971;28;20044;-79
2021/12/09 11:23:56;;;;;;;23.58;16.27;;;2.90;99.90;;;;;;5053808;28;20044;-80
2021/12/09 11:26:25;;;;;;;31.48;17.63;;;2.90;99.90;;;;;;5053883;28;20036;-80
2021/12/09 11:29:00;;;;;;;26.67;16.55;;;2.90;99.90;;;;;;5053667;28;20040;-79
2021/12/09 11:31:29;;;;;;;27.45;17.45;;;2.90;99.90;;;;;;5037183;28;20040;-80
2021/12/09 11:34:04;;;;;;;28.77;16.60;;;3.00;99.90;;;;;;5053416;28;20041;-79
2021/12/09 11:36:54;;;;;;;27.33;16.50;;;3.00;99.90;;;;;;5037169;28;20115;-79
2021/12/09 11:39:28;;;;;;;23.38;15.55;;;3.00;99.90;;;;;;5053900;28;20040;-79
2021/12/09 11:42:04;;;;;;;23.92;16.42;;;3.00;99.90;;;;;;5037034;28;20537;-79
2021/12/09 11:44:30;;;;;;;25.95;15.45;;;3.00;99.90;;;;;;5036828;28;20063;-80
2021/12/09 11:46:56;;;;;;;24.48;15.57;;;3.00;99.90;;;;;;5037018;28;20086;-79
2021/12/09 11:49:22;;;;;;;28.67;17.27;;;3.00;99.90;;;;;;5053287;28;20067;-79
2021/12/09 11:51:48;;;;;;;30.63;16.77;;;3.00;99.90;;;;;;5069883;28;20045;-79
2021/12/09 11:54:13;;;;;;;27.67;17.58;;;3.10;99.90;;;;;;5053292;28;20522;-80
2021/12/09 11:56:55;;;;;;;26.90;16.70;;;3.10;99.90;;;;;;5053603;28;20392;-79
2021/12/09 12:06:41;;;;;;;31.23;17.20;;;3.10;99.90;;;;;;5053751;28;20033;-80
2021/12/09 12:11:25;;;;;;;28.75;17.17;;;3.30;99.90;;;;;;5057570;28;20076;-79
2021/12/09 12:27:09;;;;;;;34.85;18.77;;;3.40;99.90;;;;;;5057058;28;20491;-80
2021/12/09 12:32:58;;;;;;;33.50;20.65;;;3.50;99.90;;;;;;5056930;28;20064;-80
2021/12/09 12:38:19;;;;;;;28.30;18.42;;;3.50;99.90;;;;;;5057067;28;20485;-79
2021/12/09 12:40:56;;;;;;;34.33;19.40;;;3.50;99.90;;;;;;5040169;28;20047;-79
2021/12/09 12:43:31;;;;;;;28.92;20.17;;;3.50;99.90;;;;;;5039940;28;20032;-79
2021/12/09 12:46:19;;;;;;;29.88;19.38;;;3.50;99.90;;;;;;5056914;28;20051;-79
2021/12/09 12:49:16;;;;;;;30.08;18.63;;;3.50;99.90;;;;;;5056813;28;20447;-79
2021/12/09 12:52:11;;;;;;;28.90;17.77;;;3.50;99.90;;;;;;5056407;28;20037;-79
2021/12/09 12:54:58;;;;;;;29.90;18.48;;;3.60;99.90;;;;;;5039892;28;20067;-79
2021/12/09 12:57:33;;;;;;;27.70;18.27;;;3.60;99.90;;;;;;5056194;28;20033;-79
2021/12/09 13:00:07;;;;;;;28.90;18.20;;;3.60;99.90;;;;;;5040020;28;20438;-79
2021/12/09 13:05:41;;;;;;;27.48;18.00;;;3.70;99.90;;;;;;5056481;28;20131;-79
2021/12/09 13:11:01;;;;;;;31.48;18.33;;;3.70;99.90;;;;;;5056156;28;20045;-79
2021/12/09 13:13:43;;;;;;;30.52;18.45;;;3.70;99.90;;;;;;5039332;28;20045;-79
2021/12/09 13:16:27;;;;;;;27.35;18.13;;;3.70;99.90;;;;;;5054637;28;20079;-79
2021/12/09 13:19:21;;;;;;;29.85;17.00;;;3.70;99.90;;;;;;5039547;28;20466;-79
2021/12/09 13:22:19;;;;;;;24.98;17.92;;;3.70;99.90;;;;;;5056125;28;20058;-79
2021/12/09 13:25:17;;;;;;;29.33;18.50;;;3.70;99.90;;;;;;5034792;28;20049;-79
2021/12/09 13:27:56;;;;;;;26.15;17.67;;;3.70;99.90;;;;;;5055719;28;20135;-79
2021/12/09 13:33:18;;;;;;;22.83;16.85;;;3.80;99.90;;;;;;5055516;28;20044;-80
2021/12/09 13:47:04;;;;;;;28.52;17.40;;;3.80;99.90;;;;;;5055692;28;20114;-79
2021/12/09 13:49:41;;;;;;;25.25;16.50;;;3.80;99.90;;;;;;5039190;28;20040;-79
2021/12/09 13:55:12;;;;;;;25.02;16.42;;;3.70;99.90;;;;;;5055252;28;20579;-79
2021/12/09 13:57:44;;;;;;;24.58;16.52;;;3.70;99.90;;;;;;5071779;28;20123;-79
2021/12/09 14:00:24;;;;;;;27.08;17.38;;;3.80;99.90;;;;;;5038667;28;20036;-79
2021/12/09 14:02:56;;;;;;;25.40;16.33;;;3.80;99.90;;;;;;5038438;28;20468;-79
2021/12/09 14:05:23;;;;;;;27.98;16.45;;;3.70;99.90;;;;;;5038504;28;20043;-80
2021/12/09 14:08:05;;;;;;;22.38;15.93;;;3.70;99.90;;;;;;5038775;28;20070;-79
2021/12/09 14:10:33;;;;;;;23.67;16.23;;;3.70;99.90;;;;;;5055287;28;20526;-79
2021/12/09 14:13:04;;;;;;;27.70;16.25;;;3.70;99.90;;;;;;5054672;28;20484;-79
2021/12/09 14:15:38;;;;;;;22.85;16.13;;;3.80;99.90;;;;;;5054853;28;20059;-80
2021/12/09 14:18:11;;;;;;;23.58;15.43;;;3.80;99.90;;;;;;5054961;28;20040;-79
2021/12/09 14:20:37;;;;;;;27.63;16.17;;;3.80;99.90;;;;;;5038240;28;20063;-79
2021/12/09 14:23:04;;;;;;;26.88;16.55;;;3.70;99.90;;;;;;5054592;28;20349;-79